Terminal Aerodrome Forecast
Issued by NWS Flagstaff, AZ

Home | Current Version | Previous Version | Text Only | Print | Product List | Glossary On
Versions: 1 2 3 4 5 6 7 8 9 10 11 12 13 14 15 16 17 18 19 20 21 22
000
FTUS45 KFGZ 290500
TAFFLG
TAF
KFLG 290534Z 2906/3006 VRB03KT P6SM FEW120 OVC200
     FM291000 VRB03KT P6SM BKN120 OVC200
     FM291730 06008KT P6SM BKN080 OVC120
     FM300200 05006KT P6SM -SHRA SCT020 OVC040=

USA.gov is the U.S. government's official web portal to all federal, state and local government web resources and services.